OIMB  Birjand Airport

Add Bookmark

Birjand, Iran

Status
Operational
Latitude Longitude
32° 53' 53" N 59° 15' 57" E
32.898056 59.266111
Local (DST + 5) UTC (GMT + 4)
Sep 2, 2014 01:28 Sep 1, 2014 20:58
Sunrise-Sunset Local UTC
Begin Civil Twilight 05:41 01:11
Sunrise 06:06 01:36
Sunset 06:58 14:28
End Civil Twilight 07:23 14:53

Current Weather

METAR Observed VFR
OIMB 012000Z 00000KT CAVOK 22/M05 Q1016 Mon, Sep 1, 2014 @ 20:00 UTC
(58 Minutes ago)
Visual Flight Rules
Wind Visibility Clouds Conditions
Calm 10 km or more
  • Clear skies
  • No significant weather
Temperatures Readings Precipitation
Current Temp 22°C (72°F)
Dewpoint -5°C (23°F)
Humidity 16%
Altimeter 30"Hg
Sea Level Pressure 1016mb
Field Elevation 4891.73'
None Recorded

Additional weather within a 185.2km radius of OIMB

Map ICAO Location
OIMD 170.2km N (342°)

24 Hour Weather History

Loading
-

24 Hour Weather Graphs

Loading
-

CheckWX.com is intended as a tool to help pilots better visualize weather data. It is not intended as a substitute for an official weather briefing obtained from a Flight Service Station. CheckWX.com does not meet the FAA requirements for an official pre-flight weather briefing. Therefore, it's important that pilots still call and obtain an official FSS pre-flight weather briefing.